createdAt,value
2018-09-08T00:01:01.214Z,4.83
2018-09-08T00:03:31.306Z,4.85
2018-09-08T00:06:23.595Z,4.93
2018-09-08T00:08:52.427Z,5.30
2018-09-08T00:11:21.231Z,4.78
2018-09-08T00:13:51.468Z,4.87
2018-09-08T00:16:25.881Z,4.67
2018-09-08T00:19:02.595Z,4.65
2018-09-08T00:21:36.359Z,4.90
2018-09-08T00:24:11.631Z,4.60
2018-09-08T00:26:41.476Z,4.53
2018-09-08T00:29:21.652Z,4.72
2018-09-08T00:31:50.602Z,5.05
2018-09-08T00:34:19.948Z,5.28
2018-09-08T00:36:50.327Z,4.40
2018-09-08T00:39:20.064Z,4.83
2018-09-08T00:41:49.744Z,4.90
2018-09-08T00:44:31.945Z,4.72
2018-09-08T00:47:00.700Z,4.92
2018-09-08T00:49:29.646Z,4.50
2018-09-08T00:52:01.082Z,4.28
2018-09-08T00:54:30.908Z,4.42
2018-09-08T00:57:01.080Z,4.60
2018-09-08T00:59:30.715Z,4.80
2018-09-08T01:02:01.864Z,4.60
2018-09-08T01:04:30.692Z,4.70
2018-09-08T01:06:59.676Z,4.73
2018-09-08T01:09:28.946Z,4.35
2018-09-08T01:11:59.774Z,4.78
2018-09-08T01:17:43.840Z,4.63
2018-09-08T01:20:12.231Z,5.33
2018-09-08T01:22:41.222Z,5.03
2018-09-08T01:25:10.186Z,5.30
2018-09-08T01:27:39.215Z,4.87
2018-09-08T01:30:10.539Z,5.37
2018-09-08T01:32:39.384Z,5.33
2018-09-08T01:35:08.368Z,5.03
2018-09-08T01:37:38.715Z,5.70
2018-09-08T01:40:09.075Z,5.90
2018-09-08T01:42:40.036Z,6.08
2018-09-08T01:45:18.546Z,6.17
2018-09-08T01:47:49.512Z,6.50
2018-09-08T01:50:19.078Z,6.10
2018-09-08T01:52:49.420Z,6.20
2018-09-08T01:55:20.830Z,5.80
2018-09-08T01:57:51.742Z,5.63
2018-09-08T02:00:20.699Z,5.37
2018-09-08T02:02:49.219Z,5.53
2018-09-08T02:05:17.675Z,5.58
2018-09-08T02:07:46.219Z,5.33
2018-09-08T02:10:15.048Z,5.35
2018-09-08T02:12:43.810Z,5.30
2018-09-08T02:15:12.715Z,5.28
2018-09-08T02:17:41.268Z,5.13
2018-09-08T02:20:10.778Z,5.30
2018-09-08T02:22:39.461Z,5.10
2018-09-08T02:25:08.204Z,5.27
2018-09-08T02:27:36.683Z,5.12
2018-09-08T02:30:06.765Z,5.17
2018-09-08T02:32:35.419Z,5.22
2018-09-08T02:35:04.452Z,5.60
2018-09-08T02:37:32.860Z,4.93
2018-09-08T02:40:02.027Z,5.20
2018-09-08T02:42:30.899Z,5.67
2018-09-08T02:44:59.483Z,5.50
2018-09-08T02:47:28.013Z,5.50
2018-09-08T02:50:07.757Z,5.33
2018-09-08T02:52:35.050Z,5.92
2018-09-08T02:55:22.232Z,6.20
2018-09-08T02:57:49.508Z,6.47
2018-09-08T03:00:16.791Z,7.00
2018-09-08T03:02:44.241Z,7.00
2018-09-08T03:05:11.534Z,7.55
2018-09-08T03:07:38.788Z,7.37
2018-09-08T03:10:06.052Z,8.23
2018-09-08T03:12:33.354Z,8.65
2018-09-08T03:15:00.608Z,8.08
2018-09-08T03:17:27.887Z,7.75
2018-09-08T03:19:55.240Z,7.80
2018-09-08T03:22:22.728Z,7.92
2018-09-08T03:24:50.141Z,8.38
2018-09-08T03:27:18.261Z,8.13
2018-09-08T03:29:46.392Z,8.60
2018-09-08T03:32:14.150Z,8.45
2018-09-08T03:34:41.410Z,8.40
2018-09-08T03:37:08.843Z,7.50
2018-09-08T03:39:36.154Z,8.58
2018-09-08T03:42:03.604Z,8.00
2018-09-08T03:59:12.681Z,9.18
2018-09-08T04:01:40.439Z,9.20
2018-09-08T04:04:08.894Z,9.10
2018-09-08T04:06:39.767Z,9.13
2018-09-08T04:09:10.156Z,9.20
2018-09-08T04:11:39.250Z,8.93
2018-09-08T04:14:08.389Z,8.53
2018-09-08T04:16:46.379Z,8.75
2018-09-08T04:19:14.988Z,8.30
2018-09-08T04:21:44.671Z,8.60
2018-09-08T04:24:14.184Z,8.30
2018-09-08T04:35:20.215Z,10.03
2018-09-08T04:37:48.716Z,9.83
2018-09-08T04:40:17.474Z,10.37
2018-09-08T04:42:46.060Z,10.48
2018-09-08T04:45:14.618Z,9.53
2018-09-08T04:47:43.054Z,10.05
2018-09-08T04:50:11.561Z,10.48
2018-09-08T04:52:40.006Z,9.70
2018-09-08T04:55:17.812Z,9.97
2018-09-08T04:57:46.244Z,10.93
2018-09-08T05:00:16.180Z,10.45
2018-09-08T05:02:44.842Z,10.32
2018-09-08T05:05:13.882Z,9.63
2018-09-08T05:07:42.352Z,10.20
2018-09-08T05:10:10.827Z,10.30
2018-09-08T05:12:39.410Z,9.90
2018-09-08T05:15:17.288Z,9.03
2018-09-08T05:17:45.777Z,9.13
2018-09-08T05:20:14.526Z,8.95
2018-09-08T05:22:43.624Z,9.40
2018-09-08T05:25:14.148Z,8.87
2018-09-08T05:27:43.543Z,9.70
2018-09-08T05:30:12.275Z,9.58
2018-09-08T05:32:40.802Z,9.53
2018-09-08T05:35:22.918Z,9.43
2018-09-08T05:37:51.770Z,9.00
2018-09-08T05:40:20.938Z,10.43
2018-09-08T05:42:50.020Z,10.03
2018-09-08T05:45:18.628Z,10.20
2018-09-08T05:47:47.324Z,9.88
2018-09-08T05:50:15.895Z,10.43
2018-09-08T05:52:46.358Z,9.87
2018-09-08T05:55:15.025Z,9.35
2018-09-08T05:57:43.865Z,10.08
2018-09-08T06:00:13.418Z,9.53
2018-09-08T06:02:43.552Z,9.30
2018-09-08T06:05:25.747Z,10.30
2018-09-08T06:07:54.276Z,10.75
2018-09-08T06:10:24.093Z,10.18
2018-09-08T06:12:53.547Z,9.38
2018-09-08T06:15:22.340Z,9.08
2018-09-08T06:17:51.504Z,10.13
2018-09-08T06:20:20.017Z,9.93
2018-09-08T06:22:48.573Z,9.63
2018-09-08T06:25:17.088Z,10.20
2018-09-08T06:27:45.622Z,9.40
2018-09-08T06:30:14.243Z,10.10
2018-09-08T06:32:42.725Z,9.75
2018-09-08T06:35:11.291Z,9.03
2018-09-08T06:37:40.062Z,9.30
2018-09-08T06:40:08.568Z,9.25
2018-09-08T06:42:37.098Z,9.20
2018-09-08T06:45:06.149Z,8.90
2018-09-08T06:47:34.648Z,8.83
2018-09-08T06:50:03.533Z,9.18
2018-09-08T06:52:32.249Z,8.08
2018-09-08T06:55:01.032Z,9.10
2018-09-08T06:57:29.642Z,8.45
2018-09-08T06:59:59.092Z,8.88
2018-09-08T07:02:27.757Z,8.10
2018-09-08T07:04:56.400Z,7.70
2018-09-08T07:07:25.060Z,8.10
2018-09-08T07:09:53.696Z,7.45
2018-09-08T07:12:22.408Z,7.30
2018-09-08T07:14:51.309Z,6.93
2018-09-08T07:17:20.279Z,6.80
2018-09-08T07:19:48.892Z,6.70
2018-09-08T07:22:20.504Z,7.17
2018-09-08T07:24:49.114Z,7.12
2018-09-08T07:27:21.281Z,7.65
2018-09-08T07:29:49.899Z,7.37
2018-09-08T07:32:18.933Z,7.50
2018-09-08T07:34:47.542Z,8.63
2018-09-08T07:37:16.465Z,9.60
2018-09-08T07:39:47.711Z,9.00
2018-09-08T07:42:17.028Z,9.40
2018-09-08T07:44:50.866Z,9.83
2018-09-08T07:47:19.769Z,9.73
2018-09-08T07:49:49.375Z,9.88
2018-09-08T07:52:19.274Z,9.48
2018-09-08T07:54:48.167Z,8.60
2018-09-08T07:57:17.427Z,8.28
2018-09-08T07:59:46.248Z,7.80
2018-09-08T08:02:17.323Z,7.60
2018-09-08T08:04:46.539Z,6.90
2018-09-08T08:07:16.098Z,6.95
2018-09-08T08:09:46.196Z,6.60
2018-09-08T08:12:14.969Z,6.30
2018-09-08T08:14:49.186Z,6.95
2018-09-08T08:17:18.030Z,7.10
2018-09-08T08:19:46.461Z,6.23
2018-09-08T08:22:15.157Z,5.55
2018-09-08T08:24:49.748Z,5.70
2018-09-08T08:27:19.149Z,5.10
2018-09-08T08:29:47.641Z,5.05
2018-09-08T08:32:16.289Z,4.62
2018-09-08T08:34:44.991Z,4.42
2018-09-08T08:37:13.685Z,4.42
2018-09-08T08:39:42.062Z,3.10
2018-09-08T08:42:10.741Z,3.33
2018-09-08T08:44:44.356Z,3.70
2018-09-08T08:47:12.932Z,4.35
2018-09-08T08:49:41.463Z,4.30
2018-09-08T08:52:21.157Z,4.00
2018-09-08T08:54:53.491Z,4.57
2018-09-08T08:57:22.086Z,4.60
2018-09-08T08:59:50.545Z,4.37
2018-09-08T09:02:18.955Z,4.30
2018-09-08T09:04:56.873Z,4.80
2018-09-08T09:07:25.418Z,4.40
2018-09-08T09:09:53.899Z,4.17
2018-09-08T09:12:23.885Z,4.00
2018-09-08T09:14:53.008Z,3.95
2018-09-08T09:17:21.513Z,3.40
2018-09-08T09:20:01.142Z,3.20
2018-09-08T09:22:40.765Z,2.98
2018-09-08T09:25:10.801Z,4.00
2018-09-08T09:27:41.180Z,3.08
2018-09-08T09:30:10.616Z,3.15
2018-09-08T09:32:39.201Z,3.55
2018-09-08T09:35:10.213Z,3.90
2018-09-08T09:37:39.508Z,3.62
2018-09-08T09:40:09.733Z,2.95
2018-09-08T09:42:38.187Z,4.40
2018-09-08T09:45:07.335Z,5.60
2018-09-08T09:47:35.827Z,3.20
2018-09-08T09:50:04.569Z,3.60
2018-09-08T09:52:33.183Z,3.30
2018-09-08T09:55:01.699Z,2.90
2018-09-08T09:57:31.279Z,3.53
2018-09-08T09:59:59.869Z,3.60
2018-09-08T10:02:39.470Z,3.70
2018-09-08T10:05:10.618Z,3.20
2018-09-08T10:07:39.344Z,3.50
2018-09-08T10:10:09.253Z,4.23
2018-09-08T10:12:37.854Z,3.40
2018-09-08T10:15:06.809Z,3.53
2018-09-08T10:17:35.316Z,3.45
2018-09-08T10:20:03.933Z,3.30
2018-09-08T10:22:32.392Z,3.43
2018-09-08T10:25:00.877Z,3.00
2018-09-08T10:27:29.369Z,2.80
2018-09-08T10:29:58.631Z,2.70
2018-09-08T10:32:26.909Z,3.00
2018-09-08T10:34:55.354Z,2.62
2018-09-08T10:37:26.975Z,3.00
2018-09-08T10:39:57.505Z,2.83
2018-09-08T10:42:27.079Z,2.72
2018-09-08T10:44:55.967Z,2.45
2018-09-08T10:47:24.617Z,2.70
2018-09-08T10:49:53.057Z,2.40
2018-09-08T10:52:27.819Z,2.10
2018-09-08T10:54:57.881Z,2.77
2018-09-08T10:57:30.315Z,2.67
2018-09-08T10:59:59.554Z,2.02
2018-09-08T15:21:51.232Z,1.60
2018-09-08T15:24:19.896Z,1.80
2018-09-08T15:26:48.529Z,1.67
2018-09-08T15:29:17.006Z,1.67
2018-09-08T15:31:46.602Z,1.72
2018-09-08T15:34:15.049Z,2.02
2018-09-08T15:36:43.685Z,2.20
2018-09-08T15:39:12.122Z,2.15
2018-09-08T15:41:40.993Z,1.90
2018-09-08T15:44:09.621Z,2.00
2018-09-08T15:46:38.172Z,1.47
2018-09-08T15:49:06.955Z,1.95
2018-09-08T15:51:35.607Z,1.72
2018-09-08T15:54:04.129Z,1.57
2018-09-08T15:56:32.696Z,1.60
2018-09-08T15:59:01.323Z,1.62
2018-09-08T16:01:29.773Z,1.67
2018-09-08T16:03:58.360Z,1.70
2018-09-08T16:06:26.926Z,2.00
2018-09-08T16:08:55.380Z,2.05
2018-09-08T16:11:24.973Z,1.65
2018-09-08T16:13:53.565Z,2.30
2018-09-08T16:16:22.197Z,2.00
2018-09-08T16:18:50.701Z,1.90
2018-09-08T16:21:19.341Z,1.82
2018-09-08T16:23:47.917Z,1.72
2018-09-08T16:26:16.459Z,1.85
2018-09-08T16:28:45.171Z,1.87
2018-09-08T16:31:13.776Z,2.30
2018-09-08T16:33:42.584Z,2.52
2018-09-08T16:36:11.266Z,2.00
2018-09-08T16:38:39.838Z,2.10
2018-09-08T16:41:08.529Z,3.47
2018-09-08T16:43:37.146Z,2.85
2018-09-08T16:46:06.466Z,2.35
2018-09-08T16:48:35.057Z,2.33
2018-09-08T16:51:03.577Z,2.50
2018-09-08T16:53:32.485Z,2.65
2018-09-08T16:56:01.156Z,2.65
2018-09-08T16:58:29.661Z,2.67
2018-09-08T17:00:58.198Z,2.70
2018-09-08T17:03:26.697Z,2.75
2018-09-08T17:05:55.269Z,3.33
2018-09-08T17:08:25.951Z,3.80
2018-09-08T17:10:57.484Z,3.17
2018-09-08T17:13:26.047Z,3.62
2018-09-08T17:15:54.684Z,3.20
2018-09-08T17:18:26.299Z,3.50
2018-09-08T17:20:54.771Z,3.02
2018-09-08T17:23:23.991Z,3.10
2018-09-08T17:25:52.694Z,3.02
2018-09-08T17:28:21.395Z,3.22
2018-09-08T17:30:49.814Z,3.60
2018-09-08T17:33:18.414Z,3.35
2018-09-08T17:35:46.921Z,3.20
2018-09-08T17:38:15.408Z,3.25
2018-09-08T17:40:43.979Z,3.00
2018-09-08T17:43:13.315Z,3.58
2018-09-08T17:45:41.761Z,3.65
2018-09-08T17:48:10.241Z,3.60
2018-09-08T17:50:38.800Z,3.50
2018-09-08T17:53:07.739Z,3.30
2018-09-08T17:55:36.295Z,3.15
2018-09-08T17:58:04.815Z,3.67
2018-09-08T18:00:33.383Z,3.00
2018-09-08T18:03:02.797Z,2.83
2018-09-08T18:05:31.663Z,2.90
2018-09-08T18:08:00.814Z,3.05
2018-09-08T18:10:29.545Z,3.05
2018-09-08T18:12:58.097Z,2.95
2018-09-08T18:15:26.671Z,3.12
2018-09-08T18:17:55.238Z,3.00
2018-09-08T18:20:23.732Z,2.72
2018-09-08T18:22:52.496Z,2.80
2018-09-08T18:25:21.157Z,2.80
2018-09-08T18:27:49.646Z,3.35
2018-09-08T18:30:18.275Z,3.12
2018-09-08T18:32:46.871Z,3.10
2018-09-08T18:35:15.349Z,2.92
2018-09-08T18:37:44.462Z,3.50
2018-09-08T18:40:12.932Z,3.40
2018-09-08T18:42:41.406Z,3.50
2018-09-08T18:45:09.890Z,3.25
2018-09-08T18:47:38.515Z,3.90
2018-09-08T18:50:08.079Z,4.05
2018-09-08T18:52:36.600Z,4.10
2018-09-08T18:55:05.368Z,4.12
2018-09-08T18:57:33.937Z,4.40
2018-09-08T19:00:05.797Z,4.70
2018-09-08T19:02:35.455Z,4.53
2018-09-08T19:05:04.026Z,5.40
2018-09-08T19:07:32.870Z,5.47
2018-09-08T19:10:06.377Z,5.83
2018-09-08T19:12:36.181Z,5.33
2018-09-08T19:15:10.106Z,4.90
2018-09-08T19:17:38.659Z,5.28
2018-09-08T19:20:12.761Z,5.70
2018-09-08T19:22:41.293Z,5.90
2018-09-08T19:25:09.710Z,6.33
2018-09-08T19:27:38.503Z,6.30
2018-09-08T19:30:07.254Z,5.73
2018-09-08T19:32:35.811Z,6.03
2018-09-08T19:35:10.630Z,6.35
2018-09-08T19:37:39.273Z,6.20
2018-09-08T19:40:13.165Z,6.33
2018-09-08T19:42:41.730Z,6.73
2018-09-08T19:45:10.444Z,6.50
2018-09-08T19:48:42.759Z,6.25
2018-09-08T19:51:11.707Z,6.30
2018-09-08T19:53:45.758Z,6.20
2018-09-08T19:56:14.462Z,6.30
2018-09-08T19:58:48.183Z,6.40
2018-09-08T20:01:17.396Z,6.40
2018-09-08T20:03:48.751Z,6.35
2018-09-08T20:06:22.166Z,6.70
2018-09-08T20:08:53.536Z,6.30
2018-09-08T20:11:22.846Z,6.53
2018-09-08T20:13:51.885Z,6.80
2018-09-08T20:16:21.108Z,6.80
2018-09-08T20:18:49.678Z,7.10
2018-09-08T20:21:18.513Z,7.17
2018-09-08T20:23:49.077Z,7.12
2018-09-08T20:26:17.792Z,6.90
2018-09-08T20:28:46.423Z,6.50
2018-09-08T20:31:15.738Z,7.20
2018-09-08T20:33:44.450Z,6.62
2018-09-08T20:36:12.980Z,6.83
2018-09-08T20:38:41.493Z,6.60
2018-09-08T20:41:10.248Z,7.10
2018-09-08T20:43:38.846Z,6.60
2018-09-08T20:46:07.586Z,5.77
2018-09-08T20:48:36.146Z,6.25
2018-09-08T20:51:04.703Z,5.80
2018-09-08T20:53:33.477Z,5.27
2018-09-08T20:56:02.056Z,5.20
2018-09-08T20:58:30.820Z,4.70
2018-09-08T21:00:59.357Z,4.28
2018-09-08T21:03:27.916Z,4.58
2018-09-08T21:05:56.585Z,4.28
2018-09-08T21:08:25.152Z,4.67
2018-09-08T21:10:54.300Z,4.47
2018-09-08T21:13:27.357Z,5.42
2018-09-08T21:15:57.154Z,5.80
2018-09-08T21:18:25.671Z,5.85
2018-09-08T21:20:54.755Z,5.00
2018-09-08T21:23:23.341Z,4.83
2018-09-08T21:25:52.810Z,5.33
2018-09-08T21:28:21.545Z,6.30
2018-09-08T21:30:50.427Z,5.45
2018-09-08T21:33:18.971Z,4.90
2018-09-08T21:35:47.918Z,4.90
2018-09-08T21:38:16.578Z,6.00
2018-09-08T21:40:46.084Z,5.78
2018-09-08T21:43:14.555Z,5.53
2018-09-08T21:45:43.120Z,5.22
2018-09-08T21:48:11.576Z,5.27
2018-09-08T21:50:40.142Z,5.78
2018-09-08T21:53:08.623Z,5.08
2018-09-08T21:55:37.750Z,5.60
2018-09-08T21:58:07.154Z,6.10
2018-09-08T22:00:35.741Z,6.40
2018-09-08T22:03:04.379Z,6.30
2018-09-08T22:05:33.104Z,6.92
2018-09-08T22:08:02.072Z,6.55
2018-09-08T22:10:30.635Z,5.87
2018-09-08T22:12:59.450Z,6.75
2018-09-08T22:15:28.139Z,6.40
2018-09-08T22:17:56.782Z,6.20
2018-09-08T22:20:25.564Z,5.87
2018-09-08T22:22:54.339Z,6.33
2018-09-08T22:25:23.050Z,5.80
2018-09-08T22:27:51.666Z,5.65
2018-09-08T22:30:20.420Z,5.95
2018-09-08T22:32:49.338Z,6.30
2018-09-08T22:35:19.046Z,5.55
2018-09-08T22:37:47.593Z,5.90
2018-09-08T22:40:16.110Z,5.70
2018-09-08T22:42:45.190Z,5.58
2018-09-08T22:45:14.766Z,5.72
2018-09-08T22:47:46.476Z,5.80
2018-09-08T22:50:15.950Z,6.63
2018-09-08T22:52:46.686Z,6.60
2018-09-08T22:55:15.869Z,6.87
2018-09-08T22:57:44.814Z,6.83
2018-09-08T23:00:13.558Z,7.40
2018-09-08T23:02:42.243Z,7.22
2018-09-08T23:05:20.143Z,7.00
2018-09-08T23:07:48.641Z,7.20
2018-09-08T23:10:18.013Z,7.65
2018-09-08T23:12:48.340Z,7.27
2018-09-08T23:15:19.087Z,8.03
2018-09-08T23:17:48.082Z,8.28
2018-09-08T23:20:16.642Z,7.60
2018-09-08T23:22:47.603Z,7.87
2018-09-08T23:25:18.435Z,8.33
2018-09-08T23:27:48.844Z,8.10
2018-09-08T23:30:17.362Z,8.03
2018-09-08T23:32:45.872Z,7.75
2018-09-08T23:35:14.448Z,7.80
2018-09-08T23:37:42.981Z,7.87
2018-09-08T23:40:11.421Z,8.00
2018-09-08T23:42:39.972Z,8.20
2018-09-08T23:48:05.915Z,7.95
2018-09-08T23:50:36.038Z,7.95
2018-09-08T23:53:04.405Z,7.73
2018-09-08T23:55:33.119Z,7.92
2018-09-08T23:58:02.091Z,7.80
